sensor_id;sensor_type;location;lat;lon;timestamp;temperature;humidity
25170;DHT22;13129;48.012;10.352;2023-12-22T04:31:57;4.20;99.90
25170;DHT22;13129;48.012;10.352;2023-12-22T04:34:23;4.20;99.90
25170;DHT22;13129;48.012;10.352;2023-12-22T04:36:49;4.20;99.90
25170;DHT22;13129;48.012;10.352;2023-12-22T04:39:14;4.10;99.90
25170;DHT22;13129;48.012;10.352;2023-12-22T04:41:40;4.00;99.90
25170;DHT22;13129;48.012;10.352;2023-12-22T04:44:08;4.00;99.90
25170;DHT22;13129;48.012;10.352;2023-12-22T04:46:34;4.00;99.90
25170;DHT22;13129;48.012;10.352;2023-12-22T04:48:59;4.00;99.90
25170;DHT22;13129;48.012;10.352;2023-12-22T04:51:27;4.00;99.90
25170;DHT22;13129;48.012;10.352;2023-12-22T04:53:52;4.00;99.90
25170;DHT22;13129;48.012;10.352;2023-12-22T04:56:18;4.00;99.90
25170;DHT22;13129;48.012;10.352;2023-12-22T04:58:43;4.20;99.90
25170;DHT22;13129;48.012;10.352;2023-12-22T05:01:09;4.10;99.90
25170;DHT22;13129;48.012;10.352;2023-12-22T05:03:35;4.00;99.90
25170;DHT22;13129;48.012;10.352;2023-12-22T05:06:00;4.00;99.90
25170;DHT22;13129;48.012;10.352;2023-12-22T05:08:26;4.00;99.90
25170;DHT22;13129;48.012;10.352;2023-12-22T05:10:51;4.10;99.90
25170;DHT22;13129;48.012;10.352;2023-12-22T05:13:17;4.00;99.90
25170;DHT22;13129;48.012;10.352;2023-12-22T05:15:43;4.10;99.90
25170;DHT22;13129;48.012;10.352;2023-12-22T05:18:08;4.10;99.90
25170;DHT22;13129;48.012;10.352;2023-12-22T05:20:34;4.20;99.90
25170;DHT22;13129;48.012;10.352;2023-12-22T05:23:00;4.30;99.90
25170;DHT22;13129;48.012;10.352;2023-12-22T05:25:25;4.30;99.90
25170;DHT22;13129;48.012;10.352;2023-12-22T05:27:51;4.30;99.90
25170;DHT22;13129;48.012;10.352;2023-12-22T05:30:17;4.30;99.90
25170;DHT22;13129;48.012;10.352;2023-12-22T05:32:43;4.30;99.90
25170;DHT22;13129;48.012;10.352;2023-12-22T05:35:10;4.40;99.90
25170;DHT22;13129;48.012;10.352;2023-12-22T05:37:36;4.40;99.90
25170;DHT22;13129;48.012;10.352;2023-12-22T05:40:02;4.40;99.90
25170;DHT22;13129;48.012;10.352;2023-12-22T05:42:27;4.40;99.90
25170;DHT22;13129;48.012;10.352;2023-12-22T05:44:53;4.40;99.90
25170;DHT22;13129;48.012;10.352;2023-12-22T05:47:18;4.40;99.90
25170;DHT22;13129;48.012;10.352;2023-12-22T05:49:44;4.40;99.90
25170;DHT22;13129;48.012;10.352;2023-12-22T05:52:11;4.40;99.90
25170;DHT22;13129;48.012;10.352;2023-12-22T05:54:38;4.30;99.90
25170;DHT22;13129;48.012;10.352;2023-12-22T05:57:04;4.40;99.90
25170;DHT22;13129;48.012;10.352;2023-12-22T05:59:30;4.30;99.90
25170;DHT22;13129;48.012;10.352;2023-12-22T06:02:01;4.30;99.90
25170;DHT22;13129;48.012;10.352;2023-12-22T06:04:26;4.20;99.90
25170;DHT22;13129;48.012;10.352;2023-12-22T06:06:52;4.20;99.90
25170;DHT22;13129;48.012;10.352;2023-12-22T06:09:18;4.20;99.90
25170;DHT22;13129;48.012;10.352;2023-12-22T06:11:47;4.10;99.90
25170;DHT22;13129;48.012;10.352;2023-12-22T06:14:13;4.00;99.90
25170;DHT22;13129;48.012;10.352;2023-12-22T06:16:39;4.10;99.90
25170;DHT22;13129;48.012;10.352;2023-12-22T06:19:05;4.10;99.90
25170;DHT22;13129;48.012;10.352;2023-12-22T06:21:30;4.10;99.90
25170;DHT22;13129;48.012;10.352;2023-12-22T06:23:56;4.00;99.90
25170;DHT22;13129;48.012;10.352;2023-12-22T06:26:22;4.00;99.90
25170;DHT22;13129;48.012;10.352;2023-12-22T06:28:47;4.10;99.90
25170;DHT22;13129;48.012;10.352;2023-12-22T06:31:18;4.10;99.90
25170;DHT22;13129;48.012;10.352;2023-12-22T06:33:44;4.10;99.90
25170;DHT22;13129;48.012;10.352;2023-12-22T06:36:20;4.10;99.90
25170;DHT22;13129;48.012;10.352;2023-12-22T06:38:47;4.10;99.90
25170;DHT22;13129;48.012;10.352;2023-12-22T06:41:27;4.10;99.90
25170;DHT22;13129;48.012;10.352;2023-12-22T06:43:56;4.10;99.90
25170;DHT22;13129;48.012;10.352;2023-12-22T06:46:24;4.10;99.90
25170;DHT22;13129;48.012;10.352;2023-12-22T06:48:53;4.20;99.90
25170;DHT22;13129;48.012;10.352;2023-12-22T06:53:46;4.20;99.90
25170;DHT22;13129;48.012;10.352;2023-12-22T06:58:42;4.20;99.90
25170;DHT22;13129;48.012;10.352;2023-12-22T07:01:07;4.30;99.90
25170;DHT22;13129;48.012;10.352;2023-12-22T07:03:34;4.30;99.90
25170;DHT22;13129;48.012;10.352;2023-12-22T07:05:59;4.40;99.90
25170;DHT22;13129;48.012;10.352;2023-12-22T07:08:25;4.40;99.90
25170;DHT22;13129;48.012;10.352;2023-12-22T07:10:51;4.40;99.90
25170;DHT22;13129;48.012;10.352;2023-12-22T07:13:16;4.50;99.90
25170;DHT22;13129;48.012;10.352;2023-12-22T07:15:42;4.50;99.90
25170;DHT22;13129;48.012;10.352;2023-12-22T07:18:07;4.40;99.90
25170;DHT22;13129;48.012;10.352;2023-12-22T07:20:33;4.50;99.90
25170;DHT22;13129;48.012;10.352;2023-12-22T07:22:59;4.50;99.90
25170;DHT22;13129;48.012;10.352;2023-12-22T07:25:24;4.60;99.90
25170;DHT22;13129;48.012;10.352;2023-12-22T07:27:50;4.60;99.90
25170;DHT22;13129;48.012;10.352;2023-12-22T07:30:17;4.50;99.90
25170;DHT22;13129;48.012;10.352;2023-12-22T07:32:45;4.50;99.90
25170;DHT22;13129;48.012;10.352;2023-12-22T07:35:14;4.60;99.90
25170;DHT22;13129;48.012;10.352;2023-12-22T07:37:40;4.60;99.90
25170;DHT22;13129;48.012;10.352;2023-12-22T07:40:06;4.50;99.90
25170;DHT22;13129;48.012;10.352;2023-12-22T07:42:32;4.60;99.90
25170;DHT22;13129;48.012;10.352;2023-12-22T07:44:58;4.50;99.90
25170;DHT22;13129;48.012;10.352;2023-12-22T07:47:24;4.60;99.90
25170;DHT22;13129;48.012;10.352;2023-12-22T07:49:49;4.50;99.90
25170;DHT22;13129;48.012;10.352;2023-12-22T07:52:15;4.60;99.90
25170;DHT22;13129;48.012;10.352;2023-12-22T07:54:41;4.50;99.90
25170;DHT22;13129;48.012;10.352;2023-12-22T07:57:06;4.50;99.90
25170;DHT22;13129;48.012;10.352;2023-12-22T07:59:46;4.50;99.90
25170;DHT22;13129;48.012;10.352;2023-12-22T08:02:18;4.50;99.90
25170;DHT22;13129;48.012;10.352;2023-12-22T08:04:43;4.50;99.90
25170;DHT22;13129;48.012;10.352;2023-12-22T08:07:09;4.50;99.90
25170;DHT22;13129;48.012;10.352;2023-12-22T08:09:34;4.40;99.90
25170;DHT22;13129;48.012;10.352;2023-12-22T08:12:00;4.50;99.90
25170;DHT22;13129;48.012;10.352;2023-12-22T08:33:44;4.60;99.90
25170;DHT22;13129;48.012;10.352;2023-12-22T08:36:11;4.60;99.90
25170;DHT22;13129;48.012;10.352;2023-12-22T08:38:37;4.60;99.90
25170;DHT22;13129;48.012;10.352;2023-12-22T08:41:08;4.60;99.90
25170;DHT22;13129;48.012;10.352;2023-12-22T08:43:36;4.60;99.90
25170;DHT22;13129;48.012;10.352;2023-12-22T08:46:01;4.60;99.90
25170;DHT22;13129;48.012;10.352;2023-12-22T08:48:27;4.60;99.90
25170;DHT22;13129;48.012;10.352;2023-12-22T08:50:53;4.70;99.90
25170;DHT22;13129;48.012;10.352;2023-12-22T08:53:18;4.70;99.90
25170;DHT22;13129;48.012;10.352;2023-12-22T08:55:44;4.80;99.90
25170;DHT22;13129;48.012;10.352;2023-12-22T08:58:12;4.80;99.90
25170;DHT22;13129;48.012;10.352;2023-12-22T09:00:52;4.80;99.90
25170;DHT22;13129;48.012;10.352;2023-12-22T09:03:17;4.80;99.90
25170;DHT22;13129;48.012;10.352;2023-12-22T09:05:46;4.90;99.90
25170;DHT22;13129;48.012;10.352;2023-12-22T09:08:12;4.90;99.90
25170;DHT22;13129;48.012;10.352;2023-12-22T09:10:38;5.00;99.90
25170;DHT22;13129;48.012;10.352;2023-12-22T09:13:04;5.00;99.90
25170;DHT22;13129;48.012;10.352;2023-12-22T09:15:29;5.10;99.90
25170;DHT22;13129;48.012;10.352;2023-12-22T09:17:55;5.00;99.90
25170;DHT22;13129;48.012;10.352;2023-12-22T09:20:21;5.00;99.90
25170;DHT22;13129;48.012;10.352;2023-12-22T09:22:47;5.10;99.90
25170;DHT22;13129;48.012;10.352;2023-12-22T09:25:19;5.10;99.90
25170;DHT22;13129;48.012;10.352;2023-12-22T09:27:47;5.10;99.90
25170;DHT22;13129;48.012;10.352;2023-12-22T09:30:13;5.10;99.90
25170;DHT22;13129;48.012;10.352;2023-12-22T09:32:39;5.10;99.90
25170;DHT22;13129;48.012;10.352;2023-12-22T09:35:05;5.20;99.90
25170;DHT22;13129;48.012;10.352;2023-12-22T09:37:31;5.10;99.90
25170;DHT22;13129;48.012;10.352;2023-12-22T09:39:56;5.20;99.90
25170;DHT22;13129;48.012;10.352;2023-12-22T09:42:25;5.10;99.90
25170;DHT22;13129;48.012;10.352;2023-12-22T09:44:53;5.20;99.90
25170;DHT22;13129;48.012;10.352;2023-12-22T09:47:19;5.10;99.90
25170;DHT22;13129;48.012;10.352;2023-12-22T09:49:46;5.20;99.90
25170;DHT22;13129;48.012;10.352;2023-12-22T09:52:13;5.20;99.90
25170;DHT22;13129;48.012;10.352;2023-12-22T09:54:40;5.20;99.90
25170;DHT22;13129;48.012;10.352;2023-12-22T09:57:06;5.20;99.90
25170;DHT22;13129;48.012;10.352;2023-12-22T09:59:33;5.20;99.90
25170;DHT22;13129;48.012;10.352;2023-12-22T10:02:00;5.20;99.90
25170;DHT22;13129;48.012;10.352;2023-12-22T10:04:26;5.20;99.90
25170;DHT22;13129;48.012;10.352;2023-12-22T10:06:53;5.20;99.90
25170;DHT22;13129;48.012;10.352;2023-12-22T10:09:22;5.30;99.90
25170;DHT22;13129;48.012;10.352;2023-12-22T10:11:49;5.30;99.90
25170;DHT22;13129;48.012;10.352;2023-12-22T10:14:17;5.30;99.90
25170;DHT22;13129;48.012;10.352;2023-12-22T10:16:51;5.30;99.90
25170;DHT22;13129;48.012;10.352;2023-12-22T10:19:17;5.30;99.90
25170;DHT22;13129;48.012;10.352;2023-12-22T10:21:43;5.30;99.90
25170;DHT22;13129;48.012;10.352;2023-12-22T10:24:41;5.20;99.90
25170;DHT22;13129;48.012;10.352;2023-12-22T10:27:12;5.30;99.90
25170;DHT22;13129;48.012;10.352;2023-12-22T10:29:38;5.20;99.90
25170;DHT22;13129;48.012;10.352;2023-12-22T10:32:06;5.20;99.90
25170;DHT22;13129;48.012;10.352;2023-12-22T10:34:32;5.20;99.90
25170;DHT22;13129;48.012;10.352;2023-12-22T10:36:59;5.30;99.90
25170;DHT22;13129;48.012;10.352;2023-12-22T10:39:29;5.20;99.90
25170;DHT22;13129;48.012;10.352;2023-12-22T10:41:56;5.30;99.90
25170;DHT22;13129;48.012;10.352;2023-12-22T10:44:24;5.20;99.90
25170;DHT22;13129;48.012;10.352;2023-12-22T10:46:50;5.10;99.90
25170;DHT22;13129;48.012;10.352;2023-12-22T10:49:18;5.10;99.90
25170;DHT22;13129;48.012;10.352;2023-12-22T10:51:44;5.10;99.90
25170;DHT22;13129;48.012;10.352;2023-12-22T10:54:10;5.20;99.90
25170;DHT22;13129;48.012;10.352;2023-12-22T10:56:36;5.20;99.90
25170;DHT22;13129;48.012;10.352;2023-12-22T10:59:02;5.10;99.90
25170;DHT22;13129;48.012;10.352;2023-12-22T11:01:32;5.20;99.90
25170;DHT22;13129;48.012;10.352;2023-12-22T11:04:09;5.20;99.90
25170;DHT22;13129;48.012;10.352;2023-12-22T11:06:37;5.20;99.90
25170;DHT22;13129;48.012;10.352;2023-12-22T11:09:10;5.20;99.90
25170;DHT22;13129;48.012;10.352;2023-12-22T11:11:39;5.20;99.90
25170;DHT22;13129;48.012;10.352;2023-12-22T11:14:06;5.20;99.90
25170;DHT22;13129;48.012;10.352;2023-12-22T11:16:34;5.20;99.90
25170;DHT22;13129;48.012;10.352;2023-12-22T11:19:01;5.30;99.90
25170;DHT22;13129;48.012;10.352;2023-12-22T11:21:27;5.20;99.90
25170;DHT22;13129;48.012;10.352;2023-12-22T11:23:54;5.30;99.90
25170;DHT22;13129;48.012;10.352;2023-12-22T11:26:22;5.30;99.90
25170;DHT22;13129;48.012;10.352;2023-12-22T11:28:49;5.30;99.90
25170;DHT22;13129;48.012;10.352;2023-12-22T11:31:19;5.30;99.90
25170;DHT22;13129;48.012;10.352;2023-12-22T11:33:52;5.30;99.90
25170;DHT22;13129;48.012;10.352;2023-12-22T11:36:18;5.40;99.90
25170;DHT22;13129;48.012;10.352;2023-12-22T11:38:45;5.40;99.90
25170;DHT22;13129;48.012;10.352;2023-12-22T11:41:14;5.30;99.90
25170;DHT22;13129;48.012;10.352;2023-12-22T11:43:41;5.30;99.90
25170;DHT22;13129;48.012;10.352;2023-12-22T11:46:08;5.40;99.90
25170;DHT22;13129;48.012;10.352;2023-12-22T11:48:34;5.30;99.90
25170;DHT22;13129;48.012;10.352;2023-12-22T11:51:00;5.20;99.90
25170;DHT22;13129;48.012;10.352;2023-12-22T11:53:30;5.30;99.90
25170;DHT22;13129;48.012;10.352;2023-12-22T11:56:02;5.20;99.90
25170;DHT22;13129;48.012;10.352;2023-12-22T11:58:46;5.20;99.90
25170;DHT22;13129;48.012;10.352;2023-12-22T12:01:24;5.20;99.90
25170;DHT22;13129;48.012;10.352;2023-12-22T12:03:51;5.20;99.90
25170;DHT22;13129;48.012;10.352;2023-12-22T12:09:03;5.20;99.90
25170;DHT22;13129;48.012;10.352;2023-12-22T12:14:32;5.20;99.90
25170;DHT22;13129;48.012;10.352;2023-12-22T12:17:07;5.10;99.90
25170;DHT22;13129;48.012;10.352;2023-12-22T12:19:37;5.10;99.90
25170;DHT22;13129;48.012;10.352;2023-12-22T12:22:04;5.20;99.90
25170;DHT22;13129;48.012;10.352;2023-12-22T12:24:30;5.10;99.90
25170;DHT22;13129;48.012;10.352;2023-12-22T12:26:56;5.20;99.90
25170;DHT22;13129;48.012;10.352;2023-12-22T12:29:22;5.10;99.90
25170;DHT22;13129;48.012;10.352;2023-12-22T12:31:48;5.20;99.90
25170;DHT22;13129;48.012;10.352;2023-12-22T12:34:14;5.20;99.90
25170;DHT22;13129;48.012;10.352;2023-12-22T12:36:44;5.20;99.90
25170;DHT22;13129;48.012;10.352;2023-12-22T12:39:14;5.20;99.90
25170;DHT22;13129;48.012;10.352;2023-12-22T12:41:42;5.20;99.90
25170;DHT22;13129;48.012;10.352;2023-12-22T12:44:11;5.20;99.90
25170;DHT22;13129;48.012;10.352;2023-12-22T12:46:39;5.20;99.90
25170;DHT22;13129;48.012;10.352;2023-12-22T12:49:08;5.30;99.90
25170;DHT22;13129;48.012;10.352;2023-12-22T12:51:38;5.20;99.90
25170;DHT22;13129;48.012;10.352;2023-12-22T12:54:05;5.30;99.90
25170;DHT22;13129;48.012;10.352;2023-12-22T12:56:41;5.20;99.90
25170;DHT22;13129;48.012;10.352;2023-12-22T12:59:11;5.20;99.90
25170;DHT22;13129;48.012;10.352;2023-12-22T13:01:45;5.30;99.90
25170;DHT22;13129;48.012;10.352;2023-12-22T13:04:11;5.30;99.90
25170;DHT22;13129;48.012;10.352;2023-12-22T13:06:46;5.30;99.90
25170;DHT22;13129;48.012;10.352;2023-12-22T13:09:13;5.30;99.90
25170;DHT22;13129;48.012;10.352;2023-12-22T13:11:40;5.40;99.90
25170;DHT22;13129;48.012;10.352;2023-12-22T13:14:07;5.40;99.90
25170;DHT22;13129;48.012;10.352;2023-12-22T13:16:33;5.50;99.90
25170;DHT22;13129;48.012;10.352;2023-12-22T13:19:00;5.50;99.90
25170;DHT22;13129;48.012;10.352;2023-12-22T13:21:27;5.50;99.90
25170;DHT22;13129;48.012;10.352;2023-12-22T13:24:14;5.50;99.90
25170;DHT22;13129;48.012;10.352;2023-12-22T13:26:44;5.50;99.90
25170;DHT22;13129;48.012;10.352;2023-12-22T13:29:11;5.50;99.90
25170;DHT22;13129;48.012;10.352;2023-12-22T13:31:38;5.50;99.90
25170;DHT22;13129;48.012;10.352;2023-12-22T13:34:11;5.50;99.90
25170;DHT22;13129;48.012;10.352;2023-12-22T13:36:37;5.50;99.90
25170;DHT22;13129;48.012;10.352;2023-12-22T13:39:04;5.50;99.90
25170;DHT22;13129;48.012;10.352;2023-12-22T13:41:40;5.40;99.90
25170;DHT22;13129;48.012;10.352;2023-12-22T13:44:07;5.40;99.90
25170;DHT22;13129;48.012;10.352;2023-12-22T13:46:33;5.40;99.90
25170;DHT22;13129;48.012;10.352;2023-12-22T13:49:02;5.40;99.90
25170;DHT22;13129;48.012;10.352;2023-12-22T13:51:58;5.40;99.90
25170;DHT22;13129;48.012;10.352;2023-12-22T13:54:32;5.40;99.90
25170;DHT22;13129;48.012;10.352;2023-12-22T13:56:58;5.30;99.90
25170;DHT22;13129;48.012;10.352;2023-12-22T13:59:33;5.30;99.90
25170;DHT22;13129;48.012;10.352;2023-12-22T14:02:00;5.30;99.90
25170;DHT22;13129;48.012;10.352;2023-12-22T14:04:26;5.30;99.90
25170;DHT22;13129;48.012;10.352;2023-12-22T14:06:52;5.30;99.90
25170;DHT22;13129;48.012;10.352;2023-12-22T14:09:18;5.30;99.90
25170;DHT22;13129;48.012;10.352;2023-12-22T14:11:47;5.30;99.90
25170;DHT22;13129;48.012;10.352;2023-12-22T14:14:13;5.30;99.90
25170;DHT22;13129;48.012;10.352;2023-12-22T14:16:38;5.40;99.90
25170;DHT22;13129;48.012;10.352;2023-12-22T14:19:05;5.30;99.90
25170;DHT22;13129;48.012;10.352;2023-12-22T14:21:30;5.30;99.90
25170;DHT22;13129;48.012;10.352;2023-12-22T14:23:56;5.30;99.90
25170;DHT22;13129;48.012;10.352;2023-12-22T14:26:21;5.30;99.90
25170;DHT22;13129;48.012;10.352;2023-12-22T14:28:47;5.40;99.90
25170;DHT22;13129;48.012;10.352;2023-12-22T14:31:17;5.40;99.90
25170;DHT22;13129;48.012;10.352;2023-12-22T14:33:42;5.30;99.90
25170;DHT22;13129;48.012;10.352;2023-12-22T14:36:08;5.30;99.90
25170;DHT22;13129;48.012;10.352;2023-12-22T14:38:34;5.30;99.90
25170;DHT22;13129;48.012;10.352;2023-12-22T14:40:59;5.30;99.90
25170;DHT22;13129;48.012;10.352;2023-12-22T14:43:25;5.30;99.90
25170;DHT22;13129;48.012;10.352;2023-12-22T14:45:51;5.30;99.90
25170;DHT22;13129;48.012;10.352;2023-12-22T14:48:16;5.30;99.90
25170;DHT22;13129;48.012;10.352;2023-12-22T14:50:42;5.30;99.90
25170;DHT22;13129;48.012;10.352;2023-12-22T14:53:07;5.40;99.90
25170;DHT22;13129;48.012;10.352;2023-12-22T14:55:33;5.40;99.90
25170;DHT22;13129;48.012;10.352;2023-12-22T14:57:59;5.40;99.90
25170;DHT22;13129;48.012;10.352;2023-12-22T15:00:24;5.50;99.90
25170;DHT22;13129;48.012;10.352;2023-12-22T15:02:50;5.40;99.90
25170;DHT22;13129;48.012;10.352;2023-12-22T15:05:16;5.50;99.90
25170;DHT22;13129;48.012;10.352;2023-12-22T15:07:42;5.50;99.90
25170;DHT22;13129;48.012;10.352;2023-12-22T15:10:08;5.50;99.90
25170;DHT22;13129;48.012;10.352;2023-12-22T15:12:34;5.50;99.90
25170;DHT22;13129;48.012;10.352;2023-12-22T15:15:03;5.50;99.90
25170;DHT22;13129;48.012;10.352;2023-12-22T15:17:30;5.50;99.90
25170;DHT22;13129;48.012;10.352;2023-12-22T15:19:55;5.50;99.90
25170;DHT22;13129;48.012;10.352;2023-12-22T15:22:21;5.50;99.90
25170;DHT22;13129;48.012;10.352;2023-12-22T15:24:47;5.60;99.90
25170;DHT22;13129;48.012;10.352;2023-12-22T15:27:13;5.60;99.90
25170;DHT22;13129;48.012;10.352;2023-12-22T15:29:39;5.60;99.90
25170;DHT22;13129;48.012;10.352;2023-12-22T15:32:05;5.60;99.90
25170;DHT22;13129;48.012;10.352;2023-12-22T15:37:19;5.60;99.90
25170;DHT22;13129;48.012;10.352;2023-12-22T15:39:44;5.60;99.90
25170;DHT22;13129;48.012;10.352;2023-12-22T15:42:11;5.60;99.90
25170;DHT22;13129;48.012;10.352;2023-12-22T15:44:40;5.70;99.90
25170;DHT22;13129;48.012;10.352;2023-12-22T15:47:07;5.70;99.90
25170;DHT22;13129;48.012;10.352;2023-12-22T15:49:33;5.70;99.90
25170;DHT22;13129;48.012;10.352;2023-12-22T15:51:58;5.80;99.90
25170;DHT22;13129;48.012;10.352;2023-12-22T15:54:24;5.80;99.90
25170;DHT22;13129;48.012;10.352;2023-12-22T15:56:49;5.80;99.90
25170;DHT22;13129;48.012;10.352;2023-12-22T15:59:15;5.80;99.90
25170;DHT22;13129;48.012;10.352;2023-12-22T16:01:44;5.90;99.90
25170;DHT22;13129;48.012;10.352;2023-12-22T16:04:11;6.00;99.90
25170;DHT22;13129;48.012;10.352;2023-12-22T16:06:37;5.90;99.90
25170;DHT22;13129;48.012;10.352;2023-12-22T16:09:03;6.00;99.90
25170;DHT22;13129;48.012;10.352;2023-12-22T16:11:29;6.00;99.90
25170;DHT22;13129;48.012;10.352;2023-12-22T16:13:56;6.00;99.90
25170;DHT22;13129;48.012;10.352;2023-12-22T16:16:22;6.10;99.90
25170;DHT22;13129;48.012;10.352;2023-12-22T16:18:48;6.00;99.90
25170;DHT22;13129;48.012;10.352;2023-12-22T16:21:14;6.00;99.90
25170;DHT22;13129;48.012;10.352;2023-12-22T16:23:39;6.00;99.90
25170;DHT22;13129;48.012;10.352;2023-12-22T16:26:05;6.10;99.90
25170;DHT22;13129;48.012;10.352;2023-12-22T16:28:33;6.10;99.90
25170;DHT22;13129;48.012;10.352;2023-12-22T16:31:00;6.10;99.90
25170;DHT22;13129;48.012;10.352;2023-12-22T16:33:29;6.00;99.90
25170;DHT22;13129;48.012;10.352;2023-12-22T16:35:55;6.00;99.90
25170;DHT22;13129;48.012;10.352;2023-12-22T16:38:20;6.10;99.90
25170;DHT22;13129;48.012;10.352;2023-12-22T16:40:46;6.00;99.90
25170;DHT22;13129;48.012;10.352;2023-12-22T16:43:11;6.00;99.90
25170;DHT22;13129;48.012;10.352;2023-12-22T16:45:39;6.10;99.90
25170;DHT22;13129;48.012;10.352;2023-12-22T16:48:05;6.00;99.90
25170;DHT22;13129;48.012;10.352;2023-12-22T16:50:31;6.00;99.90
25170;DHT22;13129;48.012;10.352;2023-12-22T16:53:30;6.00;99.90
25170;DHT22;13129;48.012;10.352;2023-12-22T16:55:55;6.00;99.90
25170;DHT22;13129;48.012;10.352;2023-12-22T16:58:21;6.00;99.90
25170;DHT22;13129;48.012;10.352;2023-12-22T17:00:46;6.00;99.90
25170;DHT22;13129;48.012;10.352;2023-12-22T17:03:12;6.00;99.90
25170;DHT22;13129;48.012;10.352;2023-12-22T17:05:38;6.00;99.90
25170;DHT22;13129;48.012;10.352;2023-12-22T17:08:06;6.00;99.90
25170;DHT22;13129;48.012;10.352;2023-12-22T17:10:32;6.00;99.90
25170;DHT22;13129;48.012;10.352;2023-12-22T17:12:57;6.00;99.90
25170;DHT22;13129;48.012;10.352;2023-12-22T17:18:18;6.00;99.90
25170;DHT22;13129;48.012;10.352;2023-12-22T17:20:43;6.00;99.90
25170;DHT22;13129;48.012;10.352;2023-12-22T17:23:09;6.00;99.90
25170;DHT22;13129;48.012;10.352;2023-12-22T17:25:34;6.00;99.90
25170;DHT22;13129;48.012;10.352;2023-12-22T17:28:00;6.00;99.90
25170;DHT22;13129;48.012;10.352;2023-12-22T17:30:25;6.10;99.90
25170;DHT22;13129;48.012;10.352;2023-12-22T17:32:53;6.10;99.90
25170;DHT22;13129;48.012;10.352;2023-12-22T17:35:18;6.10;99.90
25170;DHT22;13129;48.012;10.352;2023-12-22T17:37:44;6.20;99.90
25170;DHT22;13129;48.012;10.352;2023-12-22T17:41:06;6.10;99.90
25170;DHT22;13129;48.012;10.352;2023-12-22T17:43:31;6.10;99.90
25170;DHT22;13129;48.012;10.352;2023-12-22T17:45:57;6.10;99.90
25170;DHT22;13129;48.012;10.352;2023-12-22T17:48:22;6.20;99.90
25170;DHT22;13129;48.012;10.352;2023-12-22T17:53:39;6.20;99.90
25170;DHT22;13129;48.012;10.352;2023-12-22T17:56:05;6.20;99.90
25170;DHT22;13129;48.012;10.352;2023-12-22T17:58:30;6.20;99.90
25170;DHT22;13129;48.012;10.352;2023-12-22T18:06:26;6.10;99.90
25170;DHT22;13129;48.012;10.352;2023-12-22T18:08:52;6.10;99.90
25170;DHT22;13129;48.012;10.352;2023-12-22T18:11:17;6.20;99.90
25170;DHT22;13129;48.012;10.352;2023-12-22T18:13:43;6.10;99.90
25170;DHT22;13129;48.012;10.352;2023-12-22T18:16:09;6.10;99.90
25170;DHT22;13129;48.012;10.352;2023-12-22T18:21:13;6.10;99.90
25170;DHT22;13129;48.012;10.352;2023-12-22T18:23:39;6.10;99.90
25170;DHT22;13129;48.012;10.352;2023-12-22T18:26:05;6.20;99.90
25170;DHT22;13129;48.012;10.352;2023-12-22T18:28:31;6.10;99.90
25170;DHT22;13129;48.012;10.352;2023-12-22T18:30:57;6.10;99.90
25170;DHT22;13129;48.012;10.352;2023-12-22T18:33:22;6.20;99.90
25170;DHT22;13129;48.012;10.352;2023-12-22T18:35:51;6.30;99.90
25170;DHT22;13129;48.012;10.352;2023-12-22T18:38:17;6.20;99.90
25170;DHT22;13129;48.012;10.352;2023-12-22T18:41:18;6.20;99.90
25170;DHT22;13129;48.012;10.352;2023-12-22T18:43:43;6.20;99.90
25170;DHT22;13129;48.012;10.352;2023-12-22T18:46:09;6.30;99.90
25170;DHT22;13129;48.012;10.352;2023-12-22T18:48:35;6.30;99.90
25170;DHT22;13129;48.012;10.352;2023-12-22T18:51:00;6.30;99.90
25170;DHT22;13129;48.012;10.352;2023-12-22T18:53:26;6.30;99.90
25170;DHT22;13129;48.012;10.352;2023-12-22T18:55:51;6.30;99.90
25170;DHT22;13129;48.012;10.352;2023-12-22T18:58:17;6.30;99.90
25170;DHT22;13129;48.012;10.352;2023-12-22T19:03:26;6.20;99.90
25170;DHT22;13129;48.012;10.352;2023-12-22T19:08:29;6.20;99.90
25170;DHT22;13129;48.012;10.352;2023-12-22T19:10:55;6.20;99.90
25170;DHT22;13129;48.012;10.352;2023-12-22T19:21:35;6.20;99.90
25170;DHT22;13129;48.012;10.352;2023-12-22T19:26:45;6.20;99.90
25170;DHT22;13129;48.012;10.352;2023-12-22T19:29:12;6.20;99.90
25170;DHT22;13129;48.012;10.352;2023-12-22T19:31:37;6.30;99.90
25170;DHT22;13129;48.012;10.352;2023-12-22T19:34:04;6.30;99.90
25170;DHT22;13129;48.012;10.352;2023-12-22T19:36:29;6.30;99.90
25170;DHT22;13129;48.012;10.352;2023-12-22T19:38:56;6.20;99.90
25170;DHT22;13129;48.012;10.352;2023-12-22T19:41:23;6.30;99.90
25170;DHT22;13129;48.012;10.352;2023-12-22T19:44:54;6.20;99.90
25170;DHT22;13129;48.012;10.352;2023-12-22T19:47:19;6.20;99.90
25170;DHT22;13129;48.012;10.352;2023-12-22T19:49:45;6.20;99.90
25170;DHT22;13129;48.012;10.352;2023-12-22T19:52:11;6.20;99.90
25170;DHT22;13129;48.012;10.352;2023-12-22T19:57:22;6.20;99.90
25170;DHT22;13129;48.012;10.352;2023-12-22T19:59:47;6.20;99.90
25170;DHT22;13129;48.012;10.352;2023-12-22T20:02:13;6.30;99.90
25170;DHT22;13129;48.012;10.352;2023-12-22T20:04:39;6.30;99.90
25170;DHT22;13129;48.012;10.352;2023-12-22T20:07:04;6.30;99.90
25170;DHT22;13129;48.012;10.352;2023-12-22T20:09:30;6.30;99.90
25170;DHT22;13129;48.012;10.352;2023-12-22T20:11:56;6.30;99.90
25170;DHT22;13129;48.012;10.352;2023-12-22T20:14:22;6.30;99.90
25170;DHT22;13129;48.012;10.352;2023-12-22T20:16:48;6.30;99.90
25170;DHT22;13129;48.012;10.352;2023-12-22T20:19:13;6.30;99.90
25170;DHT22;13129;48.012;10.352;2023-12-22T20:21:39;6.20;99.90
25170;DHT22;13129;48.012;10.352;2023-12-22T20:24:07;6.20;99.90
25170;DHT22;13129;48.012;10.352;2023-12-22T20:26:33;6.20;99.90
25170;DHT22;13129;48.012;10.352;2023-12-22T20:28:59;6.20;99.90
25170;DHT22;13129;48.012;10.352;2023-12-22T20:34:02;6.20;99.90
25170;DHT22;13129;48.012;10.352;2023-12-22T20:36:28;6.20;99.90
25170;DHT22;13129;48.012;10.352;2023-12-22T20:38:55;6.20;99.90
25170;DHT22;13129;48.012;10.352;2023-12-22T20:44:10;6.30;99.90
25170;DHT22;13129;48.012;10.352;2023-12-22T20:48:33;6.30;99.90
25170;DHT22;13129;48.012;10.352;2023-12-22T20:51:03;6.30;99.90
25170;DHT22;13129;48.012;10.352;2023-12-22T20:53:30;6.20;99.90
25170;DHT22;13129;48.012;10.352;2023-12-22T20:55:56;6.30;99.90
25170;DHT22;13129;48.012;10.352;2023-12-22T20:58:22;6.30;99.90
25170;DHT22;13129;48.012;10.352;2023-12-22T21:02:49;6.30;99.90
25170;DHT22;13129;48.012;10.352;2023-12-22T21:05:14;6.30;99.90
25170;DHT22;13129;48.012;10.352;2023-12-22T21:07:41;6.30;99.90
25170;DHT22;13129;48.012;10.352;2023-12-22T21:10:11;6.30;99.90
25170;DHT22;13129;48.012;10.352;2023-12-22T21:12:37;6.30;99.90
25170;DHT22;13129;48.012;10.352;2023-12-22T21:15:04;6.40;99.90
25170;DHT22;13129;48.012;10.352;2023-12-22T21:17:31;6.40;99.90